createdAt,value
2022-10-28T00:05:03.966Z,16.00
2022-10-28T00:13:09.276Z,16.00
2022-10-28T00:21:20.413Z,16.00
2022-10-28T00:29:26.263Z,15.90
2022-10-28T00:37:34.106Z,15.50
2022-10-28T00:45:39.434Z,15.70
2022-10-28T00:53:49.010Z,15.70
2022-10-28T01:01:54.593Z,15.40
2022-10-28T01:10:02.664Z,15.50
2022-10-28T01:18:22.894Z,15.30
2022-10-28T01:26:53.697Z,15.30
2022-10-28T01:35:13.226Z,15.20
2022-10-28T01:43:24.575Z,15.10
2022-10-28T01:51:35.322Z,15.20
2022-10-28T01:59:42.690Z,15.20
2022-10-28T02:07:52.533Z,15.30
2022-10-28T02:16:07.489Z,15.30
2022-10-28T02:24:22.816Z,15.30
2022-10-28T02:32:33.022Z,15.20
2022-10-28T02:40:42.589Z,15.10
2022-10-28T02:48:51.329Z,15.00
2022-10-28T02:57:05.187Z,14.80
2022-10-28T03:05:11.412Z,14.80
2022-10-28T03:13:19.354Z,14.80
2022-10-28T03:21:24.763Z,14.80
2022-10-28T03:29:32.682Z,14.80
2022-10-28T03:37:37.980Z,14.60
2022-10-28T03:45:46.188Z,14.50
2022-10-28T03:53:51.526Z,14.40
2022-10-28T04:01:59.527Z,14.30
2022-10-28T04:10:04.922Z,14.20
2022-10-28T04:18:13.002Z,14.00
2022-10-28T04:26:18.344Z,14.10
2022-10-28T04:34:26.317Z,14.00
2022-10-28T04:42:31.653Z,14.00
2022-10-28T04:50:40.478Z,13.80
2022-10-28T04:58:50.368Z,13.60
2022-10-28T05:06:58.233Z,13.50
2022-10-28T05:15:03.534Z,13.50
2022-10-28T05:23:11.512Z,13.60
2022-10-28T05:31:16.846Z,13.70
2022-10-28T05:39:24.702Z,13.70
2022-10-28T05:47:29.995Z,13.80
2022-10-28T05:55:38.215Z,14.00
2022-10-28T06:03:43.594Z,14.20
2022-10-28T06:11:50.300Z,13.80
2022-10-28T06:19:55.754Z,13.90
2022-10-28T06:28:06.977Z,14.30
2022-10-28T06:36:15.620Z,13.90
2022-10-28T06:44:23.880Z,14.70
2022-10-28T06:52:30.632Z,15.20
2022-10-28T07:00:38.531Z,15.00
2022-10-28T07:08:43.797Z,15.60
2022-10-28T07:16:51.631Z,15.80
2022-10-28T07:24:56.866Z,15.20
2022-10-28T07:33:04.761Z,15.90
2022-10-28T07:41:11.708Z,16.10
2022-10-28T07:49:20.452Z,16.20
2022-10-28T07:57:25.783Z,17.00
2022-10-28T08:05:33.761Z,17.60
2022-10-28T08:13:40.364Z,17.20
2022-10-28T08:21:48.304Z,17.90
2022-10-28T08:29:54.184Z,19.00
2022-10-28T08:38:02.078Z,25.10
2022-10-28T08:46:15.059Z,34.30
2022-10-28T08:54:26.577Z,38.80
2022-10-28T09:02:36.085Z,40.60
2022-10-28T09:11:04.263Z,41.90
2022-10-28T09:19:18.848Z,42.70
2022-10-28T09:27:55.469Z,43.30
2022-10-28T09:36:02.273Z,44.00
2022-10-28T09:44:18.687Z,44.50
2022-10-28T09:52:28.021Z,44.90
2022-10-28T10:00:36.539Z,45.00
2022-10-28T10:08:43.074Z,44.50
2022-10-28T10:17:16.346Z,41.90
2022-10-28T10:25:30.036Z,33.90
2022-10-28T10:33:39.871Z,28.70
2022-10-28T10:41:46.833Z,25.20
2022-10-28T10:49:56.484Z,24.80
2022-10-28T10:58:02.651Z,24.50
2022-10-28T11:06:24.018Z,24.10
2022-10-28T11:14:32.525Z,23.80
2022-10-28T11:22:50.521Z,23.80
2022-10-28T11:39:23.525Z,23.20
2022-10-28T11:47:50.432Z,23.60
2022-10-28T11:56:07.893Z,23.20
2022-10-28T12:04:35.977Z,22.70
2022-10-28T12:12:55.286Z,22.90
2022-10-28T12:21:05.259Z,23.40
2022-10-28T12:29:20.752Z,23.70
2022-10-28T12:37:28.836Z,23.70
2022-10-28T12:45:36.914Z,23.70
2022-10-28T12:53:47.267Z,23.60
2022-10-28T13:01:55.872Z,23.30
2022-10-28T13:10:13.987Z,23.50
2022-10-28T13:18:56.072Z,23.40
2022-10-28T13:27:04.792Z,23.30
2022-10-28T13:35:26.760Z,23.20
2022-10-28T13:44:00.380Z,23.10
2022-10-28T13:52:22.867Z,23.10
2022-10-28T14:00:40.856Z,22.70
2022-10-28T14:08:48.768Z,22.80
2022-10-28T14:16:54.476Z,22.00
2022-10-28T14:25:02.555Z,22.60
2022-10-28T14:33:24.186Z,22.80
2022-10-28T14:41:48.450Z,22.70
2022-10-28T14:50:02.388Z,22.70
2022-10-28T14:58:31.064Z,22.60
2022-10-28T15:06:39.747Z,22.40
2022-10-28T15:14:50.939Z,22.30
2022-10-28T15:22:57.564Z,22.20
2022-10-28T15:31:05.672Z,22.10
2022-10-28T15:39:19.058Z,21.90
2022-10-28T15:47:31.425Z,21.70
2022-10-28T16:04:05.612Z,21.30
2022-10-28T16:12:18.225Z,21.10
2022-10-28T16:20:30.424Z,21.00
2022-10-28T16:28:37.949Z,20.90
2022-10-28T16:36:45.939Z,20.80
2022-10-28T16:44:51.843Z,20.70
2022-10-28T16:52:59.683Z,20.50
2022-10-28T17:01:05.048Z,20.30
2022-10-28T17:09:12.973Z,20.10
2022-10-28T17:17:18.487Z,20.00
2022-10-28T17:25:26.549Z,19.80
2022-10-28T17:33:31.839Z,19.70
2022-10-28T17:41:39.976Z,19.60
2022-10-28T17:49:45.274Z,19.30
2022-10-28T17:57:53.389Z,19.30
2022-10-28T18:05:59.365Z,19.10
2022-10-28T18:14:07.749Z,19.00
2022-10-28T18:22:13.120Z,18.90
2022-10-28T18:30:21.112Z,18.80
2022-10-28T18:38:26.418Z,18.70
2022-10-28T18:46:37.662Z,18.60
2022-10-28T18:54:42.945Z,18.50
2022-10-28T19:02:50.958Z,18.50
2022-10-28T19:10:58.495Z,18.50
2022-10-28T19:19:07.945Z,18.40
2022-10-28T19:27:13.345Z,18.40
2022-10-28T19:35:21.248Z,18.30
2022-10-28T19:43:26.479Z,18.20
2022-10-28T19:51:36.801Z,18.10
2022-10-28T19:59:42.055Z,18.10
2022-10-28T20:07:49.955Z,18.00
2022-10-28T20:15:55.249Z,18.00
2022-10-28T20:24:03.506Z,17.80
2022-10-28T20:32:08.857Z,17.70
2022-10-28T20:40:17.065Z,17.70
2022-10-28T20:48:22.373Z,17.50
2022-10-28T20:56:31.677Z,17.50
2022-10-28T21:04:37.605Z,17.40
2022-10-28T21:12:45.643Z,17.30
2022-10-28T21:20:50.855Z,17.20
2022-10-28T21:28:59.176Z,17.20
2022-10-28T21:37:04.351Z,17.10
2022-10-28T21:45:13.142Z,17.00
2022-10-28T21:53:18.475Z,16.80
2022-10-28T22:01:27.480Z,16.80
2022-10-28T22:09:35.012Z,16.80
2022-10-28T22:17:45.409Z,16.70
2022-10-28T22:25:50.624Z,16.60
2022-10-28T22:33:59.081Z,16.60
2022-10-28T22:42:04.620Z,16.50
2022-10-28T22:50:13.108Z,16.50
2022-10-28T22:58:19.182Z,16.40
2022-10-28T23:06:28.868Z,16.30
2022-10-28T23:14:34.088Z,16.20
2022-10-28T23:22:41.926Z,16.20
2022-10-28T23:30:47.249Z,16.20
2022-10-28T23:38:59.371Z,16.30
